Time;durP1;ratioP1;P1;durP2;ratioP2;P2;SDS_P1;SDS_P2;PMS_P1;PMS_P2;Temp;Humidity;BMP_temperature;BMP_pressure;BME280_temperature;BME280_humidity;BME280_pressure;Samples;Min_cycle;Max_cycle;Signal;HPM_P1;HPM_P2
2022/12/06 00:01:08;;;;;;;10.25;1.95;;;4.20;99.90;;;;;;4974816;28;20129;-94
2022/12/06 00:03:34;;;;;;;9.68;1.83;;;4.20;99.90;;;;;;4974485;28;20048;-94
2022/12/06 00:06:07;;;;;;;6.05;1.83;;;4.20;99.90;;;;;;4974561;28;20023;-94
2022/12/06 00:08:33;;;;;;;9.70;1.73;;;4.20;99.90;;;;;;4974724;28;20057;-93
2022/12/06 00:11:12;;;;;;;9.00;1.98;;;4.20;99.90;;;;;;4974561;28;20540;-93
2022/12/06 00:13:38;;;;;;;6.97;1.92;;;4.20;99.90;;;;;;4974078;28;20054;-92
2022/12/06 00:16:08;;;;;;;6.00;1.90;;;4.10;99.90;;;;;;4974027;28;20038;-93
2022/12/06 00:18:35;;;;;;;6.88;2.17;;;4.10;99.90;;;;;;4973273;28;20086;-93
2022/12/06 00:21:08;;;;;;;4.32;1.45;;;4.20;99.90;;;;;;4973605;28;20031;-93
2022/12/06 00:23:36;;;;;;;10.18;1.75;;;4.10;99.90;;;;;;4974591;28;20054;-94
2022/12/06 00:26:02;;;;;;;4.35;1.60;;;4.10;99.90;;;;;;4975131;28;20031;-92
2022/12/06 00:28:28;;;;;;;10.65;1.88;;;4.10;99.90;;;;;;4974140;28;20030;-94
2022/12/06 00:30:58;;;;;;;7.05;1.80;;;4.10;99.90;;;;;;4974506;28;20689;-93
2022/12/06 00:33:25;;;;;;;4.70;1.90;;;4.10;99.90;;;;;;4973976;28;20034;-93
2022/12/06 00:35:59;;;;;;;4.45;1.80;;;4.00;99.90;;;;;;4974493;28;20105;-94
2022/12/06 00:38:26;;;;;;;7.22;2.45;;;4.10;99.90;;;;;;4974274;28;20098;-94
2022/12/06 00:41:18;;;;;;;9.10;1.90;;;4.00;99.90;;;;;;4974493;28;20050;-93
2022/12/06 00:43:44;;;;;;;6.57;2.03;;;4.00;99.90;;;;;;4975773;28;20121;-94
2022/12/06 00:46:17;;;;;;;10.32;1.70;;;4.00;99.90;;;;;;4976655;28;20554;-93
2022/12/06 00:48:43;;;;;;;8.00;2.10;;;4.00;99.90;;;;;;4975367;28;20073;-94
2022/12/06 00:51:09;;;;;;;9.00;2.10;;;4.00;99.90;;;;;;4976876;28;20022;-94
2022/12/06 00:53:35;;;;;;;9.32;2.00;;;3.90;99.90;;;;;;4976933;28;20104;-93
2022/12/06 00:56:01;;;;;;;5.95;1.83;;;3.90;99.90;;;;;;4976526;28;20054;-95
2022/12/06 00:58:26;;;;;;;3.65;1.50;;;3.90;99.90;;;;;;4976633;28;20033;-93
2022/12/06 01:00:52;;;;;;;4.35;1.85;;;3.90;99.90;;;;;;4978175;28;20035;-93
2022/12/06 01:03:18;;;;;;;6.47;1.58;;;3.90;99.90;;;;;;4996291;28;20034;-90
2022/12/06 01:05:46;;;;;;;7.50;2.05;;;3.90;99.90;;;;;;4996668;28;20023;-91
2022/12/06 01:08:12;;;;;;;11.93;2.00;;;3.90;99.90;;;;;;4996471;28;20026;-91
2022/12/06 01:10:39;;;;;;;8.32;2.80;;;3.90;99.90;;;;;;4996634;28;20053;-94
2022/12/06 01:13:06;;;;;;;5.40;2.88;;;3.90;99.90;;;;;;4996689;28;20018;-92
2022/12/06 01:15:34;;;;;;;6.22;1.80;;;3.90;99.90;;;;;;4995123;28;20035;-92
2022/12/06 01:17:59;;;;;;;4.82;1.40;;;3.90;99.90;;;;;;4993885;28;20011;-94
2022/12/06 01:20:27;;;;;;;4.35;1.55;;;3.80;99.90;;;;;;4994768;28;20114;-92
2022/12/06 01:22:53;;;;;;;4.75;1.60;;;3.80;99.90;;;;;;4983401;28;20045;-93
2022/12/06 01:25:19;;;;;;;5.63;2.25;;;3.80;99.90;;;;;;4980641;28;20019;-93
2022/12/06 01:27:44;;;;;;;3.50;1.38;;;3.80;99.90;;;;;;4980521;28;20046;-92
2022/12/06 01:30:10;;;;;;;8.32;1.67;;;3.80;99.90;;;;;;4980363;28;20023;-93
2022/12/06 01:32:36;;;;;;;4.43;1.40;;;3.80;99.90;;;;;;4976557;28;20504;-94
2022/12/06 01:35:02;;;;;;;5.78;1.80;;;3.80;99.90;;;;;;4977005;28;20440;-94
2022/12/06 01:37:27;;;;;;;4.50;1.75;;;3.80;99.90;;;;;;4978118;28;20061;-92
2022/12/06 01:39:53;;;;;;;5.78;1.60;;;3.70;99.90;;;;;;4977295;28;20583;-94
2022/12/06 01:42:19;;;;;;;5.30;1.70;;;3.70;99.90;;;;;;4978090;28;20113;-94
2022/12/06 01:44:53;;;;;;;2.28;1.33;;;3.70;99.90;;;;;;4981383;28;20477;-91
2022/12/06 01:47:26;;;;;;;5.35;1.27;;;3.60;99.90;;;;;;4979515;28;20082;-93
2022/12/06 01:50:02;;;;;;;5.60;2.08;;;3.60;99.90;;;;;;4982186;28;20089;-94
2022/12/06 01:52:56;;;;;;;9.55;1.90;;;3.60;99.90;;;;;;4986295;28;20029;-93
2022/12/06 01:55:26;;;;;;;4.85;1.63;;;3.50;99.90;;;;;;4985833;28;20043;-91
2022/12/06 01:57:56;;;;;;;7.22;1.70;;;3.50;99.90;;;;;;4983485;28;20030;-92
2022/12/06 02:00:22;;;;;;;5.43;1.92;;;3.50;99.90;;;;;;4978401;28;20099;-92
2022/12/06 02:02:47;;;;;;;9.52;3.22;;;3.40;99.90;;;;;;4976095;28;20103;-93
2022/12/06 02:05:15;;;;;;;4.53;1.85;;;3.40;99.90;;;;;;4977010;28;20042;-94
2022/12/06 02:07:42;;;;;;;4.85;1.83;;;3.30;99.90;;;;;;4979698;28;20181;-93
2022/12/06 02:10:08;;;;;;;7.47;2.08;;;3.30;99.90;;;;;;4983810;28;20140;-92
2022/12/06 02:12:34;;;;;;;3.75;1.50;;;3.30;99.90;;;;;;4982210;28;20046;-93
2022/12/06 02:15:00;;;;;;;5.97;1.90;;;3.30;99.90;;;;;;4976670;28;20031;-92
2022/12/06 02:17:41;;;;;;;6.57;1.73;;;3.30;99.90;;;;;;4974389;28;20039;-92
2022/12/06 02:20:17;;;;;;;7.47;1.70;;;3.20;99.90;;;;;;4974787;28;20113;-92
2022/12/06 02:23:08;;;;;;;6.55;2.25;;;3.30;99.90;;;;;;4973840;28;20436;-92
2022/12/06 02:25:54;;;;;;;4.78;1.90;;;3.20;99.90;;;;;;4973871;28;20037;-93
2022/12/06 02:28:41;;;;;;;3.97;1.58;;;3.20;99.90;;;;;;4973493;28;20047;-94
2022/12/06 02:31:31;;;;;;;8.75;1.70;;;3.20;99.90;;;;;;4973115;28;20066;-93
2022/12/06 02:34:11;;;;;;;5.07;1.80;;;3.20;99.90;;;;;;4973333;28;20443;-93
2022/12/06 02:36:54;;;;;;;4.90;1.60;;;3.20;99.90;;;;;;4973447;28;20030;-93
2022/12/06 02:39:38;;;;;;;5.03;1.58;;;3.20;99.90;;;;;;4973083;28;20101;-93
2022/12/06 02:42:08;;;;;;;3.00;1.45;;;3.20;99.90;;;;;;4975093;28;20102;-94
2022/12/06 02:45:03;;;;;;;4.75;1.50;;;3.30;99.90;;;;;;4973670;28;20072;-93
2022/12/06 02:47:34;;;;;;;3.75;1.60;;;3.20;99.90;;;;;;4972803;28;20508;-94
2022/12/06 02:50:03;;;;;;;3.75;1.50;;;3.20;99.90;;;;;;4973804;28;20034;-94
2022/12/06 02:52:31;;;;;;;6.37;1.60;;;3.20;99.90;;;;;;4976046;28;20042;-93
2022/12/06 02:55:00;;;;;;;7.93;1.77;;;3.20;99.90;;;;;;4977511;28;20392;-93
2022/12/06 02:57:47;;;;;;;4.07;1.55;;;3.10;99.90;;;;;;4977577;28;20043;-91
2022/12/06 03:00:37;;;;;;;1.77;1.20;;;3.10;99.90;;;;;;4977180;28;20114;-94
2022/12/06 03:03:11;;;;;;;4.80;1.50;;;3.10;99.90;;;;;;4977398;28;20027;-94
2022/12/06 03:05:53;;;;;;;7.22;1.83;;;3.10;99.90;;;;;;4978830;28;20035;-93
2022/12/06 03:08:32;;;;;;;3.33;1.25;;;3.10;99.90;;;;;;4976693;28;20042;-95
2022/12/06 03:11:00;;;;;;;9.48;1.88;;;3.10;99.90;;;;;;4978467;28;20138;-94
2022/12/06 03:13:36;;;;;;;7.32;1.85;;;3.00;99.90;;;;;;4976814;28;20022;-93
2022/12/06 03:16:10;;;;;;;2.67;1.33;;;3.10;99.90;;;;;;4977533;28;20031;-94
2022/12/06 03:18:41;;;;;;;3.67;2.05;;;3.00;99.90;;;;;;4977146;28;20027;-94
2022/12/06 03:21:14;;;;;;;8.38;1.98;;;3.10;99.90;;;;;;4976850;28;20039;-93
2022/12/06 03:23:43;;;;;;;3.25;1.48;;;3.00;99.90;;;;;;4977082;28;20027;-94
2022/12/06 03:26:12;;;;;;;4.93;1.92;;;3.00;99.90;;;;;;4977939;28;20110;-94
2022/12/06 03:28:38;;;;;;;10.95;2.03;;;3.00;99.90;;;;;;4976326;28;20145;-93
2022/12/06 03:31:10;;;;;;;4.55;1.55;;;3.00;99.90;;;;;;4976829;28;20041;-95
2022/12/06 03:33:41;;;;;;;5.63;2.15;;;3.00;99.90;;;;;;4976123;28;20229;-94
2022/12/06 03:36:10;;;;;;;5.55;1.63;;;3.00;99.90;;;;;;4976381;28;20035;-94
2022/12/06 03:38:54;;;;;;;2.72;1.40;;;3.00;99.90;;;;;;4976132;28;20029;-95
2022/12/06 03:41:25;;;;;;;8.25;1.77;;;2.90;99.90;;;;;;4975424;28;20110;-94
2022/12/06 03:43:51;;;;;;;2.83;1.27;;;2.90;99.90;;;;;;4977373;28;20023;-94
2022/12/06 03:46:22;;;;;;;2.33;1.70;;;2.90;99.90;;;;;;4976814;28;20229;-92
2022/12/06 03:48:52;;;;;;;3.83;1.60;;;2.80;99.90;;;;;;4975516;28;20043;-88
2022/12/06 03:51:25;;;;;;;5.95;1.50;;;2.80;99.90;;;;;;4975650;28;20034;-89
2022/12/06 03:53:53;;;;;;;6.72;1.77;;;2.70;99.90;;;;;;4976620;28;20038;-93
2022/12/06 03:56:20;;;;;;;2.00;1.70;;;2.70;99.90;;;;;;4976534;28;20054;-94
2022/12/06 03:58:46;;;;;;;7.50;1.70;;;2.60;99.90;;;;;;4976773;28;20031;-94
2022/12/06 04:01:12;;;;;;;4.13;1.60;;;2.60;99.90;;;;;;4976137;28;20082;-94
2022/12/06 04:03:37;;;;;;;3.30;1.50;;;2.60;99.90;;;;;;4978655;28;20042;-94
2022/12/06 04:06:05;;;;;;;3.58;1.88;;;2.60;99.90;;;;;;4981430;28;20030;-94
2022/12/06 04:08:31;;;;;;;2.35;1.40;;;2.60;99.90;;;;;;4978724;28;20042;-94
2022/12/06 04:10:57;;;;;;;2.05;1.83;;;2.50;99.90;;;;;;4974809;28;20031;-94
2022/12/06 04:13:22;;;;;;;6.60;2.30;;;2.60;99.90;;;;;;4974438;28;20065;-94
2022/12/06 04:15:48;;;;;;;4.28;1.60;;;2.50;99.90;;;;;;4976205;28;20027;-92
2022/12/06 04:18:15;;;;;;;5.50;2.30;;;2.50;99.90;;;;;;4974645;28;20062;-92
2022/12/06 04:23:37;;;;;;;6.10;1.92;;;2.40;99.90;;;;;;4975263;28;20102;-93
2022/12/06 04:26:05;;;;;;;3.67;1.98;;;2.40;99.90;;;;;;4975679;28;20026;-95
2022/12/06 04:39:29;;;;;;;4.03;1.60;;;2.30;99.90;;;;;;4975359;28;20037;-95
2022/12/06 04:44:40;;;;;;;4.68;1.50;;;2.20;99.90;;;;;;4956463;29;20042;-95
2022/12/06 04:47:06;;;;;;;4.13;1.60;;;2.10;99.90;;;;;;4954708;29;20051;-95
2022/12/06 04:49:33;;;;;;;2.20;1.30;;;2.10;99.90;;;;;;4955336;29;20034;-94
2022/12/06 04:51:59;;;;;;;2.22;1.83;;;2.10;99.90;;;;;;4954994;29;20122;-95
2022/12/06 04:54:25;;;;;;;4.47;2.00;;;2.10;99.90;;;;;;4955336;29;20075;-95
2022/12/06 04:56:51;;;;;;;3.72;1.77;;;2.00;99.90;;;;;;4956300;28;20050;-95
2022/12/06 04:59:17;;;;;;;5.32;1.40;;;2.00;99.90;;;;;;4956509;28;20035;-92
2022/12/06 05:01:43;;;;;;;2.50;1.60;;;2.00;99.90;;;;;;4957528;29;20023;-95
2022/12/06 05:04:09;;;;;;;4.78;2.10;;;2.00;99.90;;;;;;4964162;29;20033;-94
2022/12/06 05:06:34;;;;;;;2.55;1.63;;;1.90;99.90;;;;;;4964189;29;20023;-95
2022/12/06 05:09:02;;;;;;;3.35;1.52;;;1.90;99.90;;;;;;4961254;29;20040;-95
2022/12/06 05:11:27;;;;;;;6.45;1.70;;;1.90;99.90;;;;;;4962710;29;20118;-94
2022/12/06 05:13:53;;;;;;;5.25;1.85;;;1.90;99.90;;;;;;4957957;28;20027;-94
2022/12/06 05:16:22;;;;;;;4.93;1.90;;;1.90;99.90;;;;;;4959170;28;20039;-95
2022/12/06 05:18:47;;;;;;;7.53;1.67;;;1.90;99.90;;;;;;4957352;29;20023;-95
2022/12/06 05:21:16;;;;;;;3.83;1.60;;;1.90;99.90;;;;;;4956449;29;20391;-95
2022/12/06 05:23:42;;;;;;;3.60;2.00;;;1.90;99.90;;;;;;4956694;29;20121;-95
2022/12/06 05:26:12;;;;;;;2.70;1.58;;;1.90;99.90;;;;;;4956401;29;20066;-94
2022/12/06 05:28:37;;;;;;;3.22;1.45;;;1.90;99.90;;;;;;4954847;29;20046;-95
2022/12/06 05:31:03;;;;;;;2.35;1.65;;;1.90;99.90;;;;;;4957113;29;20035;-93
2022/12/06 05:33:30;;;;;;;2.42;1.70;;;1.80;99.90;;;;;;4954553;29;20056;-94
2022/12/06 05:35:55;;;;;;;5.22;1.92;;;1.80;99.90;;;;;;4956684;28;20073;-94
2022/12/06 05:38:21;;;;;;;4.97;2.25;;;1.70;99.90;;;;;;4955129;29;20059;-94
2022/12/06 05:40:47;;;;;;;4.28;1.80;;;1.70;99.90;;;;;;4954850;29;20106;-94
2022/12/06 05:43:13;;;;;;;2.35;1.17;;;1.70;99.90;;;;;;4955087;29;20031;-95
2022/12/06 05:45:39;;;;;;;5.15;2.25;;;1.70;99.90;;;;;;4955294;28;20035;-93
2022/12/06 05:48:06;;;;;;;2.58;1.60;;;1.70;99.90;;;;;;4956478;29;20486;-95
2022/12/06 05:50:32;;;;;;;1.85;1.30;;;1.60;99.90;;;;;;4962101;29;20024;-94
2022/12/06 05:52:59;;;;;;;1.75;1.30;;;1.60;99.90;;;;;;4958192;29;20469;-94
2022/12/06 05:55:25;;;;;;;6.80;1.70;;;1.60;99.90;;;;;;4954452;29;20074;-94
2022/12/06 05:57:51;;;;;;;2.75;1.40;;;1.60;99.90;;;;;;4954795;29;20039;-94
2022/12/06 06:00:18;;;;;;;2.00;1.30;;;1.60;99.90;;;;;;4955213;29;20369;-95
2022/12/06 06:02:44;;;;;;;5.20;2.22;;;1.60;99.90;;;;;;4962555;29;20099;-94
2022/12/06 06:05:10;;;;;;;4.07;1.98;;;1.50;99.90;;;;;;4964968;28;20031;-94
2022/12/06 06:07:36;;;;;;;6.25;1.58;;;1.50;99.90;;;;;;4956477;29;20043;-92
2022/12/06 06:10:02;;;;;;;4.00;2.28;;;1.50;99.90;;;;;;4955671;29;20074;-93
2022/12/06 06:12:28;;;;;;;4.25;1.58;;;1.50;99.90;;;;;;4955811;28;20035;-94
2022/12/06 06:14:53;;;;;;;6.25;2.13;;;1.50;99.90;;;;;;4960500;29;20026;-94
2022/12/06 06:17:19;;;;;;;3.70;1.65;;;1.50;99.90;;;;;;4963217;29;20031;-93
2022/12/06 06:19:45;;;;;;;3.75;2.00;;;1.40;99.90;;;;;;4960426;29;20036;-93
2022/12/06 06:22:10;;;;;;;3.17;1.58;;;1.40;99.90;;;;;;4953115;29;20035;-94
2022/12/06 06:24:41;;;;;;;3.58;2.22;;;1.30;99.90;;;;;;4952932;28;20031;-94
2022/12/06 06:27:10;;;;;;;3.20;2.03;;;1.30;99.90;;;;;;4954859;28;20035;-94
2022/12/06 06:29:36;;;;;;;2.38;1.35;;;1.30;99.90;;;;;;4958021;29;20032;-94
2022/12/06 06:32:01;;;;;;;2.60;1.52;;;1.30;99.90;;;;;;4956694;28;20037;-94
2022/12/06 06:34:27;;;;;;;2.35;1.42;;;1.30;99.90;;;;;;4966912;28;20037;-94
2022/12/06 06:36:52;;;;;;;3.85;1.42;;;1.30;99.90;;;;;;4967457;28;20074;-94
2022/12/06 06:39:18;;;;;;;1.58;1.17;;;1.20;99.90;;;;;;4969156;28;20502;-95
2022/12/06 06:41:44;;;;;;;3.28;1.52;;;1.20;99.90;;;;;;4968182;28;20019;-93
2022/12/06 06:44:10;;;;;;;3.75;1.40;;;1.30;99.90;;;;;;4965834;28;20023;-94
2022/12/06 06:46:36;;;;;;;2.58;1.40;;;1.20;99.90;;;;;;4965013;28;20022;-94
2022/12/06 06:49:02;;;;;;;2.63;1.40;;;1.20;99.90;;;;;;4967620;28;20038;-94
2022/12/06 06:51:30;;;;;;;4.38;1.60;;;1.30;99.90;;;;;;4967719;28;20035;-94
2022/12/06 06:53:56;;;;;;;3.22;1.63;;;1.30;99.90;;;;;;4965566;28;20217;-94
2022/12/06 06:56:22;;;;;;;1.88;1.23;;;1.40;99.90;;;;;;4964170;28;20057;-93
2022/12/06 06:58:47;;;;;;;2.83;1.35;;;1.40;99.90;;;;;;4967126;28;20027;-94
2022/12/06 07:01:17;;;;;;;3.08;1.75;;;1.40;99.90;;;;;;4965081;28;20034;-94
2022/12/06 07:03:43;;;;;;;2.75;1.70;;;1.50;99.90;;;;;;4966140;28;20054;-94
2022/12/06 07:06:10;;;;;;;3.65;1.50;;;1.50;99.90;;;;;;4965072;28;20362;-94
2022/12/06 07:08:37;;;;;;;8.52;2.08;;;1.60;99.90;;;;;;4966820;28;20040;-94
2022/12/06 07:11:06;;;;;;;4.05;1.77;;;1.60;99.90;;;;;;4965578;28;20019;-94
2022/12/06 07:13:33;;;;;;;3.28;1.60;;;1.70;99.90;;;;;;4965488;28;20109;-94
2022/12/06 07:16:02;;;;;;;4.45;2.10;;;1.70;99.90;;;;;;4963676;28;20114;-92
2022/12/06 07:18:28;;;;;;;1.85;1.38;;;1.70;99.90;;;;;;4950378;28;20034;-93
2022/12/06 07:21:03;;;;;;;1.95;1.40;;;1.80;99.90;;;;;;4951510;29;20031;-92
2022/12/06 07:23:30;;;;;;;6.88;2.45;;;1.80;99.90;;;;;;4965143;28;20046;-93
2022/12/06 07:26:18;;;;;;;3.85;2.53;;;1.80;99.90;;;;;;4950580;29;20032;-93
2022/12/06 07:28:46;;;;;;;3.28;1.85;;;1.90;99.90;;;;;;4949422;29;20090;-92
2022/12/06 07:31:14;;;;;;;2.65;1.73;;;1.90;99.90;;;;;;4946764;29;20024;-92
2022/12/06 07:33:41;;;;;;;3.58;2.08;;;1.90;99.90;;;;;;4970761;28;20361;-91
2022/12/06 07:36:08;;;;;;;3.05;1.65;;;1.90;99.90;;;;;;4948735;29;20031;-92
2022/12/06 07:38:34;;;;;;;3.63;1.77;;;2.00;99.90;;;;;;4955968;29;20039;-93
2022/12/06 07:44:59;;;;;;;3.22;1.70;;;2.00;99.90;;;;;;4950280;29;20019;-90
2022/12/06 07:46:34;;;;;;;4.47;2.38;;;2.00;99.90;;;;;;4945290;29;20107;-92
2022/12/06 07:49:00;;;;;;;4.15;2.20;;;2.10;99.90;;;;;;4945746;29;20118;-92
2022/12/06 07:51:26;;;;;;;6.63;2.35;;;2.10;99.90;;;;;;4941367;29;20635;-92
2022/12/06 07:53:51;;;;;;;2.97;2.28;;;2.20;99.90;;;;;;4955460;29;20035;-91
2022/12/06 07:56:18;;;;;;;3.72;2.30;;;2.20;99.90;;;;;;4958214;28;20047;-90
2022/12/06 07:58:44;;;;;;;3.60;2.45;;;2.30;99.90;;;;;;4959366;28;20027;-91
2022/12/06 08:01:09;;;;;;;4.45;2.38;;;2.30;99.90;;;;;;4960360;29;20027;-89
2022/12/06 08:03:35;;;;;;;4.05;2.53;;;2.30;99.90;;;;;;4966311;28;20058;-91
2022/12/06 08:06:00;;;;;;;6.20;3.03;;;2.40;99.90;;;;;;4958610;28;20074;-91
2022/12/06 08:08:26;;;;;;;5.88;2.03;;;2.40;99.90;;;;;;4956054;29;20043;-89
2022/12/06 08:10:52;;;;;;;10.43;3.50;;;2.40;99.90;;;;;;4958038;29;20069;-91
2022/12/06 08:13:17;;;;;;;5.28;2.60;;;2.50;99.90;;;;;;4970155;28;20113;-91
2022/12/06 08:15:43;;;;;;;3.90;2.53;;;2.50;99.90;;;;;;4974764;28;20029;-90
2022/12/06 08:18:09;;;;;;;7.57;3.38;;;2.60;99.90;;;;;;4972747;28;20030;-90
2022/12/06 08:20:37;;;;;;;7.60;2.90;;;2.70;99.90;;;;;;4972705;28;20042;-91
2022/12/06 08:23:02;;;;;;;4.55;3.00;;;2.80;99.90;;;;;;4961518;28;20035;-91
2022/12/06 08:25:28;;;;;;;7.43;3.38;;;2.80;99.90;;;;;;4963183;28;20051;-92
2022/12/06 08:27:54;;;;;;;4.95;2.95;;;2.90;99.90;;;;;;4968385;29;20066;-93
2022/12/06 08:30:20;;;;;;;5.43;2.53;;;2.90;99.90;;;;;;4966776;29;20083;-92
2022/12/06 08:32:46;;;;;;;3.90;2.50;;;2.90;99.90;;;;;;4962222;29;20063;-92
2022/12/06 08:35:11;;;;;;;7.38;2.03;;;2.90;99.90;;;;;;4962982;28;20030;-92
2022/12/06 08:37:37;;;;;;;5.50;2.28;;;3.00;99.90;;;;;;4964058;28;20031;-94
2022/12/06 08:40:04;;;;;;;4.78;1.85;;;2.90;99.90;;;;;;4973860;29;20036;-95
2022/12/06 08:42:29;;;;;;;5.30;2.00;;;2.90;99.90;;;;;;4972330;28;20034;-95
2022/12/06 08:44:56;;;;;;;5.82;1.90;;;3.00;99.90;;;;;;4981095;28;20035;-96
2022/12/06 08:47:22;;;;;;;2.90;1.20;;;3.00;99.90;;;;;;4978455;28;20115;-95
2022/12/06 08:49:49;;;;;;;3.90;1.63;;;3.00;99.90;;;;;;4977083;28;20019;-94
2022/12/06 08:52:18;;;;;;;1.70;1.23;;;3.00;99.90;;;;;;4976587;28;20027;-93
2022/12/06 08:54:44;;;;;;;6.15;1.48;;;3.00;99.90;;;;;;4961719;28;20027;-94
2022/12/06 08:57:10;;;;;;;2.90;1.10;;;3.10;99.90;;;;;;4975658;28;20051;-94
2022/12/06 08:59:37;;;;;;;2.25;1.27;;;3.00;99.90;;;;;;4959841;28;20034;-94
2022/12/06 09:02:04;;;;;;;2.58;0.90;;;3.10;99.90;;;;;;4942671;29;20007;-95
2022/12/06 09:04:30;;;;;;;4.97;1.02;;;3.10;99.90;;;;;;4959698;28;20031;-95
2022/12/06 09:06:58;;;;;;;1.70;1.13;;;3.10;99.90;;;;;;4971525;29;20371;-94
2022/12/06 09:09:30;;;;;;;1.13;0.70;;;3.20;99.90;;;;;;4968414;29;20027;-95
2022/12/06 09:11:55;;;;;;;3.55;0.85;;;3.20;99.90;;;;;;4966976;29;20019;-96
2022/12/06 09:14:24;;;;;;;2.67;1.35;;;3.20;99.90;;;;;;4969255;29;20075;-96
2022/12/06 09:16:51;;;;;;;2.90;1.20;;;3.20;99.90;;;;;;4972325;29;20043;-96
2022/12/06 09:19:20;;;;;;;5.82;1.70;;;3.30;99.90;;;;;;4988376;28;20038;-96
2022/12/06 09:21:48;;;;;;;3.10;1.70;;;3.30;99.90;;;;;;4992867;28;20035;-94
2022/12/06 09:24:16;;;;;;;6.60;1.70;;;3.30;99.90;;;;;;4993695;28;20039;-95
2022/12/06 09:26:42;;;;;;;2.63;1.20;;;3.30;99.90;;;;;;4992925;28;20050;-94
2022/12/06 09:29:10;;;;;;;3.45;1.50;;;3.40;99.90;;;;;;4991576;28;20039;-94
2022/12/06 09:31:39;;;;;;;4.15;1.70;;;3.40;99.90;;;;;;4976976;28;20035;-95
2022/12/06 09:34:10;;;;;;;3.13;1.77;;;3.40;99.90;;;;;;4975587;29;20115;-95
2022/12/06 09:36:43;;;;;;;4.18;1.33;;;3.50;99.90;;;;;;4973601;29;20035;-95
2022/12/06 09:39:22;;;;;;;5.20;1.50;;;3.50;99.90;;;;;;4969346;29;20071;-95
2022/12/06 09:42:03;;;;;;;2.80;0.98;;;3.50;99.90;;;;;;4971609;28;20031;-93
2022/12/06 09:44:48;;;;;;;4.13;1.83;;;3.60;99.90;;;;;;4987614;28;20042;-95
2022/12/06 09:47:40;;;;;;;6.65;1.65;;;3.80;99.90;;;;;;4986537;28;20035;-95
2022/12/06 09:50:23;;;;;;;4.22;1.48;;;4.10;99.90;;;;;;4992754;28;20031;-94
2022/12/06 09:53:04;;;;;;;3.67;1.27;;;4.50;99.90;;;;;;4991692;28;20034;-95
2022/12/06 09:56:31;;;;;;;1.50;0.65;;;4.80;99.90;;;;;;4992234;28;20057;-94
2022/12/06 09:59:25;;;;;;;4.03;1.05;;;5.10;99.90;;;;;;4968340;28;20034;-94
2022/12/06 10:02:21;;;;;;;1.15;0.70;;;5.30;99.90;;;;;;4987219;28;20030;-94
2022/12/06 10:05:32;;;;;;;2.50;0.80;;;5.40;99.90;;;;;;4985906;28;20069;-95
2022/12/06 10:08:18;;;;;;;3.35;1.20;;;5.40;99.90;;;;;;4971213;28;20059;-94
2022/12/06 10:11:02;;;;;;;3.78;0.98;;;5.40;99.90;;;;;;4971427;29;20019;-96
2022/12/06 10:13:56;;;;;;;2.50;0.73;;;5.20;99.90;;;;;;4969205;29;20014;-95
2022/12/06 10:17:12;;;;;;;1.20;0.60;;;5.20;99.90;;;;;;4968470;28;20038;-95
2022/12/06 10:20:18;;;;;;;4.78;0.70;;;5.10;99.90;;;;;;4950657;29;20024;-95
2022/12/06 10:23:11;;;;;;;4.28;0.93;;;5.00;99.90;;;;;;4955256;29;20099;-95
2022/12/06 10:25:58;;;;;;;2.15;0.80;;;4.90;99.90;;;;;;4954548;29;20032;-96
2022/12/06 10:28:44;;;;;;;2.80;0.70;;;4.90;99.90;;;;;;4954372;29;20039;-94
2022/12/06 10:31:35;;;;;;;0.68;0.68;;;4.80;99.90;;;;;;4949304;29;20091;-95
2022/12/06 10:34:21;;;;;;;2.72;0.63;;;4.80;99.90;;;;;;4947270;29;20035;-96
2022/12/06 10:37:11;;;;;;;2.75;0.75;;;4.80;99.90;;;;;;4953343;29;20102;-95
2022/12/06 10:39:59;;;;;;;5.45;0.90;;;4.80;99.90;;;;;;4956815;29;20035;-96
2022/12/06 10:42:37;;;;;;;4.30;0.90;;;4.80;99.90;;;;;;4955356;28;20031;-94
2022/12/06 10:48:22;;;;;;;5.53;1.40;;;4.80;99.90;;;;;;4953099;29;20120;-96
2022/12/06 10:56:46;;;;;;;5.10;1.55;;;4.90;99.90;;;;;;5465841;23;19928;-95
2022/12/06 10:59:40;;;;;;;4.30;1.13;;;4.90;99.90;;;;;;4996788;28;20080;-95
2022/12/06 11:02:44;;;;;;;3.83;1.70;;;4.90;99.90;;;;;;5001004;28;20089;-96
2022/12/06 11:05:42;;;;;;;5.88;1.42;;;4.90;99.90;;;;;;5021386;28;20027;-96
2022/12/06 11:08:24;;;;;;;4.72;0.95;;;4.90;99.90;;;;;;5000743;28;20026;-96
2022/12/06 11:10:54;;;;;;;8.68;2.03;;;4.90;99.90;;;;;;5004363;28;20014;-93
2022/12/06 11:13:39;;;;;;;;;;;4.90;99.90;;;;;;4972517;28;20023;-94
2022/12/06 11:16:21;;;;;;;3.35;0.90;;;4.90;99.90;;;;;;5017973;28;19929;-95
2022/12/06 11:19:02;;;;;;;10.48;1.52;;;4.90;99.90;;;;;;5001561;28;20022;-94
2022/12/06 11:21:48;;;;;;;10.57;1.40;;;4.90;99.90;;;;;;5019123;28;20048;-96
2022/12/06 11:24:53;;;;;;;4.75;1.20;;;5.00;99.90;;;;;;5000046;28;20030;-95
2022/12/06 11:27:45;;;;;;;13.57;1.58;;;5.00;99.90;;;;;;4999254;28;20038;-95
2022/12/06 11:30:22;;;;;;;9.38;1.15;;;5.00;99.90;;;;;;5001282;28;20042;-93
2022/12/06 11:32:51;;;;;;;9.20;1.40;;;5.10;99.90;;;;;;5001268;28;20018;-95
2022/12/06 11:35:31;;;;;;;6.82;1.30;;;5.10;99.90;;;;;;5002140;28;20040;-96
2022/12/06 11:38:10;;;;;;;8.15;1.13;;;5.10;99.90;;;;;;4998106;28;20030;-96
2022/12/06 11:40:50;;;;;;;9.40;1.20;;;5.10;99.90;;;;;;5016241;28;20036;-96
2022/12/06 11:49:53;;;;;;;6.45;1.08;;;5.10;99.90;;;;;;5336831;22;20100;-94
2022/12/06 11:52:49;;;;;;;7.38;1.67;;;5.20;99.90;;;;;;5012342;28;20034;-95
2022/12/06 11:55:22;;;;;;;12.02;2.60;;;5.20;99.90;;;;;;5029550;28;20018;-96
2022/12/06 11:58:10;;;;;;;9.35;1.23;;;5.20;99.90;;;;;;5004938;28;20018;-94
2022/12/06 12:00:36;;;;;;;8.48;1.30;;;5.30;99.90;;;;;;5021134;28;20041;-94
2022/12/06 12:03:03;;;;;;;9.57;1.08;;;5.30;99.90;;;;;;5003560;28;20041;-96
2022/12/06 12:05:37;;;;;;;7.15;1.27;;;5.40;99.90;;;;;;5036338;28;20015;-95
2022/12/06 12:08:29;;;;;;;12.18;1.70;;;5.40;99.90;;;;;;5020898;28;20042;-95
2022/12/06 12:11:03;;;;;;;6.57;1.08;;;5.40;99.90;;;;;;5018808;28;20030;-96
2022/12/06 12:13:45;;;;;;;14.57;1.85;;;5.40;99.90;;;;;;5003714;28;20049;-95
2022/12/06 12:16:36;;;;;;;8.43;1.38;;;5.30;99.90;;;;;;5021669;28;20069;-95
2022/12/06 12:19:44;;;;;;;4.35;0.80;;;5.30;99.90;;;;;;5021361;28;20084;-95
2022/12/06 12:22:39;;;;;;;6.85;1.35;;;5.40;99.90;;;;;;4988304;28;20065;-96
2022/12/06 12:25:29;;;;;;;4.55;1.13;;;5.40;99.90;;;;;;4996194;28;20019;-96
2022/12/06 12:28:01;;;;;;;11.18;1.40;;;5.40;99.90;;;;;;5009206;28;20069;-96
2022/12/06 12:31:12;;;;;;;6.72;1.45;;;5.40;99.90;;;;;;5019302;28;20033;-95
2022/12/06 12:33:46;;;;;;;7.50;1.45;;;5.40;99.90;;;;;;5008695;28;20069;-95
2022/12/06 12:36:29;;;;;;;22.42;2.30;;;5.50;99.90;;;;;;5016817;28;20030;-95
2022/12/06 12:39:01;;;;;;;9.38;1.52;;;5.50;99.90;;;;;;5001932;28;20019;-94
2022/12/06 12:41:51;;;;;;;6.88;1.20;;;5.60;99.90;;;;;;5011158;28;20038;-95
2022/12/06 12:44:54;;;;;;;4.93;1.35;;;5.70;99.90;;;;;;5002132;28;20053;-94
2022/12/06 12:47:31;;;;;;;;;;;;;;;;;;;;;
2022/12/06 12:50:05;;;;;;;9.43;1.60;;;5.70;99.90;;;;;;5011616;28;20065;-95
2022/12/06 12:52:41;;;;;;;9.45;1.67;;;5.70;99.90;;;;;;4997643;28;20045;-94
2022/12/06 12:55:15;;;;;;;10.57;1.90;;;5.70;99.90;;;;;;4999307;28;20034;-94
2022/12/06 12:57:44;;;;;;;4.45;1.50;;;5.70;99.90;;;;;;4997299;28;20110;-96
2022/12/06 13:00:21;;;;;;;10.52;2.28;;;5.60;99.90;;;;;;4999743;28;20029;-94
2022/12/06 13:03:01;;;;;;;7.28;1.60;;;5.60;99.90;;;;;;5000392;28;20018;-95
2022/12/06 13:05:39;;;;;;;13.17;2.40;;;5.60;99.90;;;;;;5000008;28;20034;-94
2022/12/06 13:08:23;;;;;;;9.82;2.10;;;5.50;99.90;;;;;;4998700;28;20061;-94
2022/12/06 13:10:59;;;;;;;12.57;2.17;;;5.50;99.90;;;;;;4982755;28;20023;-94
2022/12/06 13:13:50;;;;;;;20.10;3.70;;;5.50;99.90;;;;;;4982106;28;20022;-95
2022/12/06 13:16:30;;;;;;;6.07;2.10;;;5.60;99.90;;;;;;4981198;28;20042;-94
2022/12/06 13:19:22;;;;;;;13.43;1.58;;;5.60;99.90;;;;;;4965542;28;20014;-95
2022/12/06 13:21:53;;;;;;;11.60;1.70;;;5.60;99.90;;;;;;4998100;28;20018;-94
2022/12/06 13:24:37;;;;;;;7.60;1.77;;;5.60;99.90;;;;;;4981723;28;20046;-95
2022/12/06 13:27:10;;;;;;;8.38;1.73;;;5.60;99.90;;;;;;4972044;28;20049;-95
2022/12/06 13:29:59;;;;;;;8.60;1.25;;;5.60;99.90;;;;;;5001283;28;20062;-96
2022/12/06 13:33:16;;;;;;;8.27;1.55;;;5.60;99.90;;;;;;5001696;28;20015;-95
2022/12/06 13:36:23;;;;;;;12.90;2.45;;;5.60;99.90;;;;;;4946836;28;20120;-93
2022/12/06 13:38:55;;;;;;;10.27;1.40;;;5.60;99.90;;;;;;4939000;28;20047;-93
2022/12/06 13:44:36;;;;;;;9.13;1.40;;;5.50;99.90;;;;;;4938716;28;21106;-94
2022/12/06 13:47:39;;;;;;;10.98;1.90;;;5.50;99.90;;;;;;4923911;28;20067;-94
2022/12/06 13:50:16;;;;;;;12.73;2.90;;;5.50;99.90;;;;;;4937399;28;20124;-96
2022/12/06 13:53:08;;;;;;;11.23;1.60;;;5.50;99.90;;;;;;4923480;28;20125;-94
2022/12/06 13:55:36;;;;;;;7.75;1.45;;;5.50;99.90;;;;;;4883402;29;20042;-96
2022/12/06 13:58:40;;;;;;;5.03;1.30;;;5.40;99.90;;;;;;4880701;29;20025;-96
2022/12/06 14:02:02;;;;;;;8.35;1.38;;;5.40;99.90;;;;;;4861050;29;20105;-95
2022/12/06 14:04:38;;;;;;;16.70;2.13;;;5.40;99.90;;;;;;4881225;29;20025;-94
2022/12/06 14:07:42;;;;;;;;;;;;;;;;;;;;;
2022/12/06 14:10:21;;;;;;;12.38;3.15;;;5.40;99.90;;;;;;4880587;29;20061;-94